createdAt,value
2024-01-28T00:01:19.612Z,100.00
2024-01-28T00:04:22.055Z,100.00
2024-01-28T00:07:24.152Z,100.00
2024-01-28T00:10:26.583Z,100.00
2024-01-28T00:13:29.777Z,100.00
2024-01-28T00:16:32.146Z,100.00
2024-01-28T00:19:34.638Z,100.00
2024-01-28T00:22:36.902Z,100.00
2024-01-28T00:25:39.001Z,100.00
2024-01-28T00:28:41.278Z,100.00
2024-01-28T00:31:43.443Z,100.00
2024-01-28T00:34:48.986Z,100.00
2024-01-28T00:37:56.332Z,100.00
2024-01-28T00:41:01.575Z,100.00
2024-01-28T00:44:03.758Z,100.00
2024-01-28T00:47:06.105Z,100.00
2024-01-28T00:50:08.686Z,100.00
2024-01-28T00:53:11.088Z,100.00
2024-01-28T00:56:17.800Z,100.00
2024-01-28T00:59:20.907Z,100.00
2024-01-28T01:02:23.214Z,100.00
2024-01-28T01:05:25.423Z,100.00
2024-01-28T01:08:27.713Z,100.00
2024-01-28T01:11:29.854Z,100.00
2024-01-28T01:14:36.806Z,100.00
2024-01-28T01:17:39.226Z,100.00
2024-01-28T01:20:41.441Z,100.00
2024-01-28T01:23:43.611Z,100.00
2024-01-28T01:26:45.858Z,100.00
2024-01-28T01:29:48.020Z,100.00
2024-01-28T01:32:50.208Z,100.00
2024-01-28T01:35:52.723Z,100.00
2024-01-28T01:38:54.933Z,100.00
2024-01-28T01:41:57.936Z,100.00
2024-01-28T01:45:00.252Z,100.00
2024-01-28T01:48:02.663Z,100.00
2024-01-28T01:51:08.100Z,100.00
2024-01-28T01:54:10.655Z,100.00
2024-01-28T01:57:13.644Z,100.00
2024-01-28T02:00:16.841Z,100.00
2024-01-28T02:03:19.259Z,100.00
2024-01-28T02:06:21.542Z,100.00
2024-01-28T02:09:24.175Z,100.00
2024-01-28T02:12:26.805Z,100.00
2024-01-28T02:15:29.179Z,100.00
2024-01-28T02:18:31.634Z,100.00
2024-01-28T02:21:33.968Z,100.00
2024-01-28T02:24:36.131Z,100.00
2024-01-28T02:27:40.725Z,100.00
2024-01-28T02:30:43.389Z,100.00
2024-01-28T02:33:45.813Z,100.00
2024-01-28T02:36:48.139Z,100.00
2024-01-28T02:39:50.338Z,100.00
2024-01-28T02:42:52.603Z,100.00
2024-01-28T02:45:54.880Z,100.00
2024-01-28T02:48:57.766Z,100.00
2024-01-28T02:52:00.019Z,100.00
2024-01-28T02:55:02.146Z,100.00
2024-01-28T02:58:04.705Z,100.00
2024-01-28T03:01:07.263Z,100.00
2024-01-28T03:04:09.595Z,100.00
2024-01-28T03:07:11.757Z,100.00
2024-01-28T03:10:14.037Z,100.00
2024-01-28T03:13:16.344Z,100.00
2024-01-28T03:16:19.006Z,100.00
2024-01-28T03:19:21.309Z,100.00
2024-01-28T03:22:23.604Z,100.00
2024-01-28T03:25:25.665Z,100.00
2024-01-28T03:28:27.785Z,100.00
2024-01-28T03:31:30.029Z,100.00
2024-01-28T03:34:32.466Z,100.00
2024-01-28T03:37:34.737Z,100.00
2024-01-28T03:40:36.828Z,100.00
2024-01-28T03:43:39.860Z,100.00
2024-01-28T03:46:42.093Z,100.00
2024-01-28T03:49:44.281Z,100.00
2024-01-28T03:52:47.145Z,100.00
2024-01-28T03:55:49.234Z,100.00
2024-01-28T03:58:51.482Z,100.00
2024-01-28T04:01:53.691Z,100.00
2024-01-28T04:04:55.894Z,100.00
2024-01-28T04:07:58.111Z,100.00
2024-01-28T04:11:00.249Z,100.00
2024-01-28T04:14:02.338Z,100.00
2024-01-28T04:17:04.617Z,100.00
2024-01-28T04:20:07.930Z,100.00
2024-01-28T04:23:10.049Z,100.00
2024-01-28T04:26:12.375Z,100.00
2024-01-28T04:29:14.711Z,100.00
2024-01-28T04:32:16.844Z,100.00
2024-01-28T04:35:19.068Z,100.00
2024-01-28T04:38:21.261Z,100.00
2024-01-28T04:41:23.442Z,100.00
2024-01-28T04:44:25.613Z,100.00
2024-01-28T04:47:27.876Z,100.00
2024-01-28T04:50:30.014Z,100.00
2024-01-28T04:53:32.190Z,100.00
2024-01-28T04:56:34.356Z,100.00
2024-01-28T04:59:36.647Z,100.00
2024-01-28T05:02:39.782Z,100.00
2024-01-28T05:05:42.657Z,100.00
2024-01-28T05:08:44.859Z,100.00
2024-01-28T05:11:47.098Z,100.00
2024-01-28T05:14:49.380Z,100.00
2024-01-28T05:17:51.681Z,100.00
2024-01-28T05:20:53.816Z,100.00
2024-01-28T05:23:56.060Z,100.00
2024-01-28T05:26:58.406Z,100.00
2024-01-28T05:30:00.568Z,100.00
2024-01-28T05:33:02.776Z,100.00
2024-01-28T05:36:14.860Z,100.00
2024-01-28T05:39:18.313Z,100.00
2024-01-28T05:42:20.557Z,100.00
2024-01-28T05:45:22.738Z,100.00
2024-01-28T05:48:25.011Z,100.00
2024-01-28T05:51:28.534Z,100.00
2024-01-28T05:54:31.937Z,100.00
2024-01-28T05:57:34.505Z,100.00
2024-01-28T06:00:36.744Z,100.00
2024-01-28T06:03:39.077Z,100.00
2024-01-28T06:06:43.804Z,100.00
2024-01-28T06:09:46.288Z,100.00
2024-01-28T06:12:48.547Z,100.00
2024-01-28T06:15:53.127Z,100.00
2024-01-28T06:18:57.769Z,100.00
2024-01-28T06:22:03.712Z,100.00
2024-01-28T06:25:08.641Z,100.00
2024-01-28T06:28:10.904Z,100.00
2024-01-28T06:31:14.621Z,100.00
2024-01-28T06:34:17.235Z,100.00
2024-01-28T06:37:19.834Z,100.00
2024-01-28T06:40:22.028Z,100.00
2024-01-28T06:43:26.871Z,100.00
2024-01-28T06:46:29.006Z,100.00
2024-01-28T06:49:31.363Z,100.00
2024-01-28T06:52:33.565Z,100.00
2024-01-28T06:55:36.153Z,100.00
2024-01-28T06:58:38.385Z,100.00
2024-01-28T07:01:41.051Z,100.00
2024-01-28T07:04:43.323Z,100.00
2024-01-28T07:07:46.188Z,100.00
2024-01-28T07:10:48.514Z,97.42
2024-01-28T07:13:50.754Z,97.82
2024-01-28T07:16:53.067Z,98.04
2024-01-28T07:19:55.440Z,96.67
2024-01-28T07:22:57.772Z,95.42
2024-01-28T07:25:59.863Z,93.99
2024-01-28T07:29:02.020Z,93.72
2024-01-28T07:32:05.223Z,95.41
2024-01-28T07:35:08.313Z,94.45
2024-01-28T07:38:10.666Z,98.72
2024-01-28T07:41:15.976Z,98.12
2024-01-28T07:44:18.122Z,96.44
2024-01-28T07:47:20.565Z,94.14
2024-01-28T07:50:22.888Z,94.73
2024-01-28T07:53:24.952Z,93.51
2024-01-28T07:56:27.860Z,93.69
2024-01-28T07:59:30.060Z,92.58
2024-01-28T08:02:32.681Z,92.87
2024-01-28T08:05:34.910Z,96.20
2024-01-28T08:08:37.091Z,97.98
2024-01-28T08:11:39.758Z,97.94
2024-01-28T08:14:42.048Z,96.92
2024-01-28T08:17:46.061Z,96.46
2024-01-28T08:20:48.285Z,97.50
2024-01-28T08:23:50.279Z,96.54
2024-01-28T08:26:52.493Z,95.20
2024-01-28T08:29:54.650Z,94.53
2024-01-28T08:32:56.837Z,93.22
2024-01-28T08:35:59.255Z,93.33
2024-01-28T08:39:01.879Z,92.54
2024-01-28T08:42:04.040Z,92.94
2024-01-28T08:45:06.589Z,92.91
2024-01-28T08:48:11.557Z,93.56
2024-01-28T08:51:13.948Z,92.67
2024-01-28T08:54:16.219Z,91.63
2024-01-28T08:57:20.120Z,92.99
2024-01-28T09:00:22.680Z,92.19
2024-01-28T09:03:25.167Z,92.05
2024-01-28T09:06:27.614Z,94.94
2024-01-28T09:09:30.267Z,92.77
2024-01-28T09:12:32.388Z,93.19
2024-01-28T09:15:34.603Z,93.57
2024-01-28T09:18:36.814Z,99.79
2024-01-28T09:21:39.004Z,100.00
2024-01-28T09:24:41.503Z,100.00
2024-01-28T09:27:49.508Z,100.00
2024-01-28T09:30:52.245Z,100.00
2024-01-28T09:33:54.582Z,100.00
2024-01-28T09:36:57.179Z,100.00
2024-01-28T09:40:00.412Z,100.00
2024-01-28T09:43:41.126Z,100.00
2024-01-28T09:49:20.515Z,100.00
2024-01-28T09:52:22.923Z,100.00
2024-01-28T09:55:25.012Z,100.00
2024-01-28T09:58:27.367Z,100.00
2024-01-28T10:01:32.383Z,100.00
2024-01-28T10:04:36.337Z,100.00
2024-01-28T10:08:05.720Z,96.75
2024-01-28T10:11:10.826Z,91.50
2024-01-28T10:14:13.994Z,74.18
2024-01-28T10:17:16.159Z,73.53
2024-01-28T10:20:23.859Z,71.56
2024-01-28T10:23:26.058Z,66.43
2024-01-28T10:26:28.202Z,66.06
2024-01-28T10:29:30.283Z,65.67
2024-01-28T10:32:32.497Z,64.42
2024-01-28T10:35:34.898Z,63.89
2024-01-28T10:38:43.861Z,64.33
2024-01-28T10:41:51.771Z,64.59
2024-01-28T10:44:59.784Z,64.50
2024-01-28T10:48:11.567Z,60.34
2024-01-28T10:51:16.386Z,62.45
2024-01-28T10:54:18.725Z,64.81
2024-01-28T10:57:22.754Z,66.57
2024-01-28T11:00:26.350Z,63.96
2024-01-28T11:03:29.107Z,66.83
2024-01-28T11:06:31.573Z,67.25
2024-01-28T11:09:34.134Z,70.83
2024-01-28T11:20:15.013Z,75.31
2024-01-28T11:23:17.950Z,75.23
2024-01-28T11:26:20.478Z,75.72
2024-01-28T11:29:22.673Z,76.58
2024-01-28T11:32:35.010Z,77.46
2024-01-28T11:35:37.547Z,78.33
2024-01-28T11:38:44.425Z,78.25
2024-01-28T11:41:46.779Z,78.44
2024-01-28T11:44:49.825Z,79.14
2024-01-28T11:47:52.640Z,78.56
2024-01-28T11:50:54.937Z,79.09
2024-01-28T11:53:57.096Z,79.20
2024-01-28T11:57:01.521Z,79.86
2024-01-28T12:00:09.520Z,79.83
2024-01-28T12:03:11.910Z,79.18
2024-01-28T12:06:15.423Z,80.78
2024-01-28T12:09:17.646Z,81.08
2024-01-28T12:12:19.867Z,79.77
2024-01-28T12:15:22.310Z,80.84
2024-01-28T12:18:24.755Z,80.63
2024-01-28T12:21:29.089Z,80.91
2024-01-28T12:24:32.723Z,80.74
2024-01-28T12:27:34.863Z,81.00
2024-01-28T12:30:39.060Z,81.01
2024-01-28T12:33:41.452Z,80.31
2024-01-28T12:36:43.946Z,80.72
2024-01-28T12:39:46.330Z,80.35
2024-01-28T12:42:48.715Z,80.15
2024-01-28T12:45:52.352Z,80.12
2024-01-28T12:48:57.288Z,81.07
2024-01-28T12:51:59.731Z,80.12
2024-01-28T12:55:02.627Z,80.60
2024-01-28T13:05:15.813Z,85.49
2024-01-28T13:08:18.268Z,85.13
2024-01-28T13:11:20.491Z,85.27
2024-01-28T13:14:22.708Z,84.73
2024-01-28T13:17:26.050Z,85.71
2024-01-28T13:20:28.417Z,84.99
2024-01-28T13:23:30.708Z,85.11
2024-01-28T13:26:33.211Z,84.76
2024-01-28T13:29:39.379Z,83.89
2024-01-28T13:32:41.776Z,75.27
2024-01-28T13:35:44.011Z,63.41
2024-01-28T13:38:46.326Z,61.80
2024-01-28T13:41:48.519Z,58.95
2024-01-28T13:44:51.533Z,58.28
2024-01-28T13:47:53.848Z,58.21
2024-01-28T13:50:56.269Z,57.98
2024-01-28T13:53:58.531Z,63.18
2024-01-28T13:57:01.144Z,65.06
2024-01-28T14:00:04.433Z,66.20
2024-01-28T14:03:07.466Z,67.84
2024-01-28T14:06:09.784Z,67.32
2024-01-28T14:09:12.658Z,69.47
2024-01-28T14:12:15.182Z,69.55
2024-01-28T14:15:17.497Z,70.31
2024-01-28T14:18:19.975Z,71.35
2024-01-28T14:21:26.622Z,72.14
2024-01-28T14:24:28.897Z,72.92
2024-01-28T14:27:31.119Z,72.73
2024-01-28T14:30:33.380Z,71.78
2024-01-28T14:33:35.653Z,70.48
2024-01-28T14:36:38.089Z,70.59
2024-01-28T14:39:40.394Z,70.07
2024-01-28T14:42:42.772Z,70.39
2024-01-28T14:45:46.712Z,68.76
2024-01-28T14:48:49.460Z,69.09
2024-01-28T14:51:52.423Z,69.83
2024-01-28T14:54:54.701Z,70.15
2024-01-28T14:57:57.123Z,70.25
2024-01-28T15:00:59.290Z,71.58
2024-01-28T15:04:01.536Z,70.99
2024-01-28T15:07:04.457Z,71.39
2024-01-28T15:10:07.943Z,72.06
2024-01-28T15:13:10.303Z,72.21
2024-01-28T15:16:12.711Z,72.82
2024-01-28T15:19:15.078Z,73.57
2024-01-28T15:22:17.419Z,73.53
2024-01-28T15:25:20.216Z,75.27
2024-01-28T15:28:25.533Z,76.12
2024-01-28T15:31:31.340Z,76.71
2024-01-28T15:34:33.459Z,76.02
2024-01-28T15:37:35.981Z,76.17
2024-01-28T15:40:38.143Z,76.37
2024-01-28T15:43:40.226Z,76.37
2024-01-28T15:46:42.520Z,75.47
2024-01-28T15:49:45.265Z,76.21
2024-01-28T15:52:47.582Z,76.40
2024-01-28T15:55:49.859Z,76.26
2024-01-28T15:58:52.226Z,76.56
2024-01-28T16:01:54.395Z,77.73
2024-01-28T16:04:56.647Z,77.89
2024-01-28T16:07:59.411Z,79.30
2024-01-28T16:11:01.570Z,81.54
2024-01-28T16:14:04.411Z,80.44
2024-01-28T16:17:06.873Z,80.15
2024-01-28T16:20:10.740Z,82.29
2024-01-28T16:23:13.421Z,83.91
2024-01-28T16:26:15.746Z,85.90
2024-01-28T16:29:18.025Z,84.36
2024-01-28T16:32:20.062Z,83.60
2024-01-28T16:35:22.845Z,84.14
2024-01-28T16:38:25.062Z,83.90
2024-01-28T16:41:28.633Z,84.58
2024-01-28T16:44:30.846Z,85.12
2024-01-28T16:47:33.529Z,82.17
2024-01-28T16:50:37.226Z,81.76
2024-01-28T16:53:39.385Z,82.67
2024-01-28T16:56:41.548Z,83.35
2024-01-28T16:59:44.148Z,83.37
2024-01-28T17:02:46.288Z,83.12
2024-01-28T17:05:48.761Z,82.78
2024-01-28T17:08:50.897Z,82.48
2024-01-28T17:11:53.400Z,82.22
2024-01-28T17:14:55.707Z,81.91
2024-01-28T17:17:58.121Z,81.24
2024-01-28T17:21:05.799Z,81.93
2024-01-28T17:24:08.672Z,81.44
2024-01-28T17:27:10.847Z,81.61
2024-01-28T17:30:13.297Z,81.37
2024-01-28T17:33:15.854Z,81.14
2024-01-28T17:36:18.352Z,81.32
2024-01-28T17:39:20.859Z,81.27
2024-01-28T17:42:27.683Z,81.01
2024-01-28T17:45:31.485Z,80.64
2024-01-28T17:48:36.494Z,81.06
2024-01-28T17:51:39.714Z,80.79
2024-01-28T17:54:42.404Z,79.86
2024-01-28T17:57:44.713Z,79.91
2024-01-28T18:00:47.438Z,79.43
2024-01-28T18:03:49.927Z,79.16
2024-01-28T18:06:52.685Z,78.53
2024-01-28T18:09:55.054Z,79.09
2024-01-28T18:12:57.555Z,79.10
2024-01-28T18:16:00.108Z,79.76
2024-01-28T18:19:02.491Z,80.02
2024-01-28T18:22:05.226Z,79.67
2024-01-28T18:25:07.764Z,79.58
2024-01-28T18:28:11.165Z,80.29
2024-01-28T18:31:13.251Z,80.21
2024-01-28T18:34:15.500Z,80.17
2024-01-28T18:37:17.833Z,80.29
2024-01-28T18:40:20.291Z,79.36
2024-01-28T18:43:22.656Z,79.08
2024-01-28T18:46:24.813Z,78.96
2024-01-28T18:49:27.159Z,78.38
2024-01-28T18:52:29.608Z,78.55
2024-01-28T18:55:32.333Z,77.82
2024-01-28T18:58:34.395Z,78.75
2024-01-28T19:01:38.141Z,78.24
2024-01-28T19:04:41.128Z,77.59
2024-01-28T19:07:43.647Z,77.01
2024-01-28T19:10:45.829Z,77.47
2024-01-28T19:13:49.470Z,76.88
2024-01-28T19:16:51.729Z,77.03
2024-01-28T19:19:53.940Z,77.28
2024-01-28T19:22:57.098Z,76.33
2024-01-28T19:25:59.791Z,77.20
2024-01-28T19:29:02.631Z,80.80
2024-01-28T19:32:05.751Z,84.44
2024-01-28T19:35:08.599Z,83.15
2024-01-28T19:38:10.920Z,85.50
2024-01-28T19:41:14.720Z,90.38
2024-01-28T19:44:17.064Z,93.83
2024-01-28T19:47:19.220Z,93.85
2024-01-28T19:50:21.376Z,90.14
2024-01-28T19:53:23.712Z,90.67
2024-01-28T19:56:25.884Z,89.58
2024-01-28T19:59:28.220Z,87.47
2024-01-28T20:02:30.428Z,87.13
2024-01-28T20:05:32.738Z,87.48
2024-01-28T20:08:34.926Z,88.00
2024-01-28T20:11:37.247Z,87.07
2024-01-28T20:14:39.578Z,87.07
2024-01-28T20:17:44.296Z,86.27
2024-01-28T20:20:47.016Z,86.75
2024-01-28T20:23:50.147Z,85.99
2024-01-28T20:26:52.783Z,85.76
2024-01-28T20:29:54.938Z,84.30
2024-01-28T20:32:57.174Z,83.50
2024-01-28T20:36:00.629Z,84.27
2024-01-28T20:39:06.141Z,83.70
2024-01-28T20:42:10.883Z,82.84
2024-01-28T20:45:13.946Z,82.50
2024-01-28T20:48:16.466Z,82.13
2024-01-28T20:51:19.920Z,81.26
2024-01-28T20:54:22.296Z,81.24
2024-01-28T20:57:24.520Z,80.39
2024-01-28T21:00:26.779Z,80.75
2024-01-28T21:03:29.476Z,79.73
2024-01-28T21:06:31.673Z,79.45
2024-01-28T21:09:34.055Z,80.47
2024-01-28T21:12:36.703Z,79.90
2024-01-28T21:15:39.047Z,79.75
2024-01-28T21:18:41.202Z,79.72
2024-01-28T21:21:44.071Z,79.64
2024-01-28T21:24:47.238Z,79.10
2024-01-28T21:27:51.957Z,79.40
2024-01-28T21:30:56.007Z,79.13
2024-01-28T21:33:58.876Z,79.18
2024-01-28T21:37:01.072Z,78.09
2024-01-28T21:40:04.971Z,78.87
2024-01-28T21:43:07.406Z,78.83
2024-01-28T21:46:09.998Z,79.00
2024-01-28T21:49:12.582Z,79.72
2024-01-28T21:52:14.794Z,79.23
2024-01-28T21:55:17.117Z,78.54
2024-01-28T21:58:19.507Z,78.75
2024-01-28T22:01:22.066Z,77.67
2024-01-28T22:04:24.364Z,78.76
2024-01-28T22:07:26.593Z,78.05
2024-01-28T22:10:28.918Z,77.19
2024-01-28T22:13:31.357Z,77.21
2024-01-28T22:16:33.675Z,77.51
2024-01-28T22:19:35.915Z,77.56
2024-01-28T22:22:38.114Z,77.36
2024-01-28T22:25:40.249Z,77.49
2024-01-28T22:28:42.416Z,76.74
2024-01-28T22:31:44.883Z,77.59
2024-01-28T22:34:47.356Z,77.28
2024-01-28T22:37:49.641Z,76.74
2024-01-28T22:40:52.021Z,77.51
2024-01-28T22:43:54.502Z,77.41
2024-01-28T22:46:56.701Z,77.42
2024-01-28T22:50:00.276Z,77.33
2024-01-28T22:53:02.507Z,77.82
2024-01-28T22:56:05.002Z,77.01
2024-01-28T22:59:07.385Z,76.68
2024-01-28T23:02:11.155Z,76.78
2024-01-28T23:05:13.444Z,76.24
2024-01-28T23:08:15.729Z,76.42
2024-01-28T23:11:18.062Z,75.64
2024-01-28T23:14:20.253Z,75.36
2024-01-28T23:17:22.381Z,76.70
2024-01-28T23:20:24.763Z,77.04
2024-01-28T23:23:27.221Z,76.97
2024-01-28T23:26:29.607Z,76.44
2024-01-28T23:29:32.213Z,76.29
2024-01-28T23:32:35.157Z,76.61
2024-01-28T23:35:37.657Z,76.99
2024-01-28T23:38:42.122Z,76.73
2024-01-28T23:41:45.050Z,76.04
2024-01-28T23:44:47.311Z,76.90
2024-01-28T23:47:49.860Z,75.84
2024-01-28T23:50:52.795Z,76.98
2024-01-28T23:53:55.569Z,76.21
2024-01-28T23:56:57.646Z,75.87
2024-01-28T23:59:59.891Z,76.64
